createdAt,value
2019-06-20T00:00:13.610Z,11.60
2019-06-20T00:02:44.451Z,13.32
2019-06-20T00:05:15.660Z,11.18
2019-06-20T00:07:46.743Z,10.20
2019-06-20T00:10:17.787Z,9.83
2019-06-20T00:12:59.842Z,9.53
2019-06-20T00:15:21.299Z,10.48
2019-06-20T00:17:52.238Z,8.55
2019-06-20T00:20:23.247Z,9.83
2019-06-20T00:22:54.272Z,8.38
2019-06-20T00:25:25.323Z,9.83
2019-06-20T00:27:56.265Z,9.43
2019-06-20T00:30:27.268Z,7.15
2019-06-20T00:32:58.203Z,8.05
2019-06-20T00:35:29.178Z,7.87
2019-06-20T00:38:02.870Z,7.12
2019-06-20T00:40:33.691Z,6.87
2019-06-20T00:43:17.001Z,5.83
2019-06-20T00:45:37.042Z,5.63
2019-06-20T00:48:07.947Z,7.22
2019-06-20T00:50:38.969Z,6.70
2019-06-20T00:53:09.948Z,5.80
2019-06-20T00:55:40.919Z,5.58
2019-06-20T00:58:12.165Z,4.67
2019-06-20T01:00:43.093Z,13.43
2019-06-20T01:03:13.928Z,6.97
2019-06-20T01:05:46.250Z,5.33
2019-06-20T01:08:16.956Z,5.47
2019-06-20T01:10:47.930Z,5.42
2019-06-20T01:13:32.533Z,4.75
2019-06-20T01:15:50.902Z,4.95
2019-06-20T01:18:21.795Z,6.90
2019-06-20T01:20:52.810Z,5.35
2019-06-20T01:23:23.705Z,5.65
2019-06-20T01:25:54.667Z,4.65
2019-06-20T01:28:25.507Z,5.90
2019-06-20T01:30:56.993Z,4.30
2019-06-20T01:33:27.893Z,4.37
2019-06-20T01:35:59.102Z,4.70
2019-06-20T01:38:30.056Z,5.37
2019-06-20T01:41:00.861Z,5.92
2019-06-20T01:43:31.855Z,6.12
2019-06-20T01:46:02.872Z,6.95
2019-06-20T01:48:33.653Z,5.40
2019-06-20T01:51:05.587Z,5.35
2019-06-20T01:53:36.381Z,5.28
2019-06-20T01:56:07.355Z,4.85
2019-06-20T01:58:39.285Z,5.05
2019-06-20T02:01:10.215Z,5.30
2019-06-20T02:03:41.071Z,4.62
2019-06-20T02:06:12.406Z,4.70
2019-06-20T02:08:43.308Z,7.30
2019-06-20T02:11:14.285Z,6.12
2019-06-20T02:13:47.922Z,6.15
2019-06-20T02:16:18.923Z,4.12
2019-06-20T02:18:49.637Z,5.03
2019-06-20T02:21:20.561Z,5.37
2019-06-20T02:23:52.560Z,6.95
2019-06-20T02:26:24.726Z,5.08
2019-06-20T02:28:55.709Z,6.97
2019-06-20T02:31:26.848Z,5.47
2019-06-20T02:33:58.742Z,4.28
2019-06-20T02:36:29.499Z,3.22
2019-06-20T02:39:00.295Z,4.03
2019-06-20T02:41:32.712Z,4.00
2019-06-20T02:44:03.487Z,3.60
2019-06-20T02:46:34.521Z,3.77
2019-06-20T02:49:06.819Z,4.00
2019-06-20T02:51:38.002Z,3.47
2019-06-20T02:54:09.064Z,3.87
2019-06-20T02:56:40.297Z,4.03
2019-06-20T02:59:11.264Z,3.30
2019-06-20T03:01:42.323Z,3.22
2019-06-20T03:04:14.470Z,3.87
2019-06-20T03:06:45.547Z,3.77
2019-06-20T03:09:16.451Z,4.37
2019-06-20T03:11:47.973Z,3.55
2019-06-20T03:14:18.911Z,3.02
2019-06-20T03:16:50.148Z,3.17
2019-06-20T03:19:21.725Z,3.90
2019-06-20T03:21:52.474Z,3.70
2019-06-20T03:24:25.273Z,4.20
2019-06-20T03:26:56.420Z,4.20
2019-06-20T03:29:27.393Z,3.22
2019-06-20T03:31:58.314Z,3.37
2019-06-20T03:34:30.874Z,3.47
2019-06-20T03:37:02.099Z,3.52
2019-06-20T03:39:32.904Z,2.92
2019-06-20T03:42:04.045Z,3.05
2019-06-20T03:44:34.867Z,3.33
2019-06-20T03:47:05.905Z,3.10
2019-06-20T03:49:36.978Z,3.10
2019-06-20T03:52:08.971Z,5.28
2019-06-20T03:54:40.179Z,3.37
2019-06-20T03:57:12.164Z,3.77
2019-06-20T03:59:43.063Z,3.12
2019-06-20T04:02:13.940Z,3.12
2019-06-20T04:04:45.047Z,2.85
2019-06-20T04:07:15.726Z,2.92
2019-06-20T04:09:46.712Z,4.12
2019-06-20T04:12:18.737Z,3.15
2019-06-20T04:14:49.594Z,2.55
2019-06-20T04:17:20.548Z,3.60
2019-06-20T04:19:51.730Z,3.02
2019-06-20T04:22:23.408Z,3.10
2019-06-20T04:24:54.322Z,3.87
2019-06-20T04:27:26.495Z,4.00
2019-06-20T04:29:57.341Z,4.33
2019-06-20T04:32:28.518Z,3.37
2019-06-20T04:34:59.563Z,3.45
2019-06-20T04:37:30.437Z,2.95
2019-06-20T04:40:01.404Z,4.00
2019-06-20T04:42:35.540Z,2.98
2019-06-20T04:45:09.024Z,2.72
2019-06-20T04:47:38.712Z,3.27
2019-06-20T04:50:08.097Z,3.12
2019-06-20T04:52:37.376Z,2.75
2019-06-20T04:55:07.312Z,4.25
2019-06-20T04:57:36.853Z,3.62
2019-06-20T05:00:06.249Z,2.72
2019-06-20T05:02:35.639Z,2.58
2019-06-20T05:05:05.009Z,2.87
2019-06-20T05:07:34.680Z,3.67
2019-06-20T05:10:04.418Z,2.65
2019-06-20T05:12:34.953Z,3.25
2019-06-20T05:15:04.451Z,3.17
2019-06-20T05:17:33.924Z,3.37
2019-06-20T05:20:03.413Z,3.05
2019-06-20T05:22:32.735Z,2.70
2019-06-20T05:25:02.335Z,3.55
2019-06-20T05:27:31.581Z,3.35
2019-06-20T05:30:01.135Z,2.77
2019-06-20T05:32:30.780Z,3.77
2019-06-20T05:35:02.973Z,2.60
2019-06-20T05:37:30.827Z,3.22
2019-06-20T05:40:00.648Z,2.40
2019-06-20T05:42:30.149Z,5.22
2019-06-20T05:44:59.833Z,2.70
2019-06-20T05:47:29.455Z,2.77
2019-06-20T05:49:59.479Z,3.22
2019-06-20T05:52:29.028Z,2.98
2019-06-20T05:54:58.732Z,2.75
2019-06-20T05:57:28.100Z,2.83
2019-06-20T06:00:00.941Z,3.05
2019-06-20T06:02:30.582Z,2.15
2019-06-20T06:05:00.315Z,2.70
2019-06-20T06:07:31.104Z,3.17
2019-06-20T06:10:03.982Z,2.75
2019-06-20T06:12:49.004Z,2.40
2019-06-20T06:15:03.107Z,2.72
2019-06-20T06:17:32.810Z,2.08
2019-06-20T06:20:02.389Z,1.98
2019-06-20T06:22:32.086Z,1.57
2019-06-20T06:25:01.633Z,2.52
2019-06-20T06:27:31.081Z,1.40
2019-06-20T06:30:01.134Z,1.80
2019-06-20T06:32:39.470Z,2.47
2019-06-20T06:35:01.945Z,1.87
2019-06-20T06:37:31.605Z,1.82
2019-06-20T06:40:01.091Z,1.50
2019-06-20T06:42:30.308Z,1.77
2019-06-20T06:45:00.211Z,2.30
2019-06-20T06:47:30.760Z,2.30
2019-06-20T06:50:00.223Z,1.42
2019-06-20T06:52:30.320Z,1.37
2019-06-20T06:54:59.724Z,2.37
2019-06-20T06:57:30.207Z,1.70
2019-06-20T07:00:00.409Z,2.17
2019-06-20T07:02:29.787Z,1.60
2019-06-20T07:04:59.404Z,2.47
2019-06-20T07:07:28.988Z,2.15
2019-06-20T07:09:58.392Z,2.02
2019-06-20T07:12:28.746Z,1.70
2019-06-20T07:14:58.191Z,1.82
2019-06-20T07:17:27.560Z,1.90
2019-06-20T07:19:57.186Z,1.80
2019-06-20T07:22:26.771Z,1.95
2019-06-20T07:24:56.424Z,1.80
2019-06-20T07:27:25.875Z,1.90
2019-06-20T07:29:56.049Z,1.82
2019-06-20T07:32:25.944Z,1.90
2019-06-20T07:34:57.134Z,1.87
2019-06-20T07:37:27.074Z,1.82
2019-06-20T07:39:56.501Z,2.05
2019-06-20T07:42:26.915Z,1.77
2019-06-20T07:44:56.816Z,1.60
2019-06-20T07:47:26.265Z,2.25
2019-06-20T07:49:55.721Z,1.42
2019-06-20T07:52:25.314Z,2.00
2019-06-20T07:54:54.779Z,1.70
2019-06-20T07:57:25.257Z,2.05
2019-06-20T07:59:54.962Z,1.82
2019-06-20T08:02:24.301Z,1.70
2019-06-20T08:04:53.633Z,1.82
2019-06-20T08:07:23.664Z,1.82
2019-06-20T08:09:52.965Z,1.50
2019-06-20T08:12:22.550Z,2.00
2019-06-20T08:14:52.263Z,1.90
2019-06-20T08:17:34.824Z,1.95
2019-06-20T08:19:53.514Z,1.80
2019-06-20T08:22:23.439Z,2.17
2019-06-20T08:24:53.691Z,1.60
2019-06-20T08:27:23.685Z,2.00
2019-06-20T08:29:53.825Z,1.85
2019-06-20T08:32:23.249Z,2.15
2019-06-20T08:34:52.859Z,1.67
2019-06-20T08:37:22.324Z,2.77
2019-06-20T08:39:51.850Z,1.98
2019-06-20T08:42:21.482Z,1.85
2019-06-20T08:44:51.152Z,1.77
2019-06-20T08:47:20.644Z,2.17
2019-06-20T08:49:49.949Z,1.98
2019-06-20T08:52:19.525Z,2.22
2019-06-20T08:54:48.971Z,1.80
2019-06-20T08:57:18.445Z,1.65
2019-06-20T08:59:48.116Z,1.98
2019-06-20T09:02:18.827Z,1.95
2019-06-20T09:04:48.573Z,3.12
2019-06-20T09:07:18.308Z,2.00
2019-06-20T09:09:47.762Z,1.77
2019-06-20T09:12:18.712Z,1.47
2019-06-20T09:14:48.534Z,2.22
2019-06-20T09:17:18.141Z,2.02
2019-06-20T09:19:47.864Z,1.50
2019-06-20T09:22:17.564Z,1.65
2019-06-20T09:24:46.935Z,1.75
2019-06-20T09:27:16.602Z,1.92
2019-06-20T09:29:46.601Z,2.00
2019-06-20T09:32:16.041Z,1.80
2019-06-20T09:34:46.297Z,2.15
2019-06-20T09:37:16.130Z,2.77
2019-06-20T09:39:45.724Z,3.02
2019-06-20T09:42:15.190Z,2.42
2019-06-20T09:44:44.802Z,2.25
2019-06-20T09:47:14.309Z,1.70
2019-06-20T09:49:43.911Z,2.35
2019-06-20T09:52:13.705Z,5.65
2019-06-20T09:54:43.064Z,4.60
2019-06-20T09:57:12.645Z,3.02
2019-06-20T09:59:56.145Z,2.72
2019-06-20T10:02:13.277Z,2.70
2019-06-20T10:04:43.726Z,2.47
2019-06-20T10:07:13.539Z,2.42
2019-06-20T10:09:43.024Z,3.22
2019-06-20T10:12:12.543Z,1.95
2019-06-20T10:14:42.375Z,1.77
2019-06-20T10:17:11.886Z,2.55
2019-06-20T10:19:41.354Z,1.72
2019-06-20T10:22:10.779Z,2.72
2019-06-20T10:24:40.240Z,2.70
2019-06-20T10:27:09.947Z,2.10
2019-06-20T10:29:39.539Z,2.37
2019-06-20T10:32:09.069Z,1.87
2019-06-20T10:34:39.528Z,1.80
2019-06-20T10:37:09.374Z,1.80
2019-06-20T10:39:39.004Z,2.15
2019-06-20T10:42:08.469Z,2.42
2019-06-20T10:44:41.069Z,6.92
2019-06-20T10:47:13.123Z,2.27
2019-06-20T10:49:44.710Z,2.77
2019-06-20T10:52:14.430Z,1.70
2019-06-20T10:54:44.853Z,1.75
2019-06-20T10:57:14.598Z,2.25
2019-06-20T10:59:44.261Z,4.50
2019-06-20T11:02:13.959Z,8.23
2019-06-20T11:04:44.107Z,4.83
2019-06-20T11:07:13.645Z,3.80
2019-06-20T11:09:43.503Z,3.35
2019-06-20T11:12:13.153Z,5.42
2019-06-20T11:14:44.122Z,6.25
2019-06-20T11:17:13.691Z,5.37
2019-06-20T11:19:43.770Z,6.37
2019-06-20T11:22:13.417Z,7.12
2019-06-20T11:24:43.068Z,7.42
2019-06-20T11:27:13.306Z,6.53
2019-06-20T11:29:44.063Z,7.28
2019-06-20T11:32:13.690Z,11.18
2019-06-20T11:34:44.746Z,9.73
2019-06-20T11:37:14.399Z,10.30
2019-06-20T11:39:47.453Z,17.60
2019-06-20T11:44:47.455Z,11.00
2019-06-20T11:47:16.929Z,8.50
2019-06-20T11:49:46.998Z,14.33
2019-06-20T11:52:16.605Z,12.28
2019-06-20T11:54:46.204Z,19.92
2019-06-20T11:57:16.033Z,31.93
2019-06-20T11:59:45.490Z,15.03
2019-06-20T12:02:15.007Z,12.65
2019-06-20T12:04:45.278Z,12.47
2019-06-20T12:07:14.630Z,7.03
2019-06-20T12:09:44.236Z,6.20
2019-06-20T12:12:14.296Z,7.12
2019-06-20T12:14:44.285Z,6.28
2019-06-20T12:17:13.763Z,6.55
2019-06-20T12:19:44.680Z,7.45
2019-06-20T12:22:14.161Z,7.40
2019-06-20T12:24:44.516Z,7.83
2019-06-20T12:27:14.269Z,7.50
2019-06-20T12:29:44.379Z,7.70
2019-06-20T12:32:14.019Z,7.58
2019-06-20T12:34:44.549Z,6.75
2019-06-20T12:37:14.020Z,7.10
2019-06-20T12:39:44.564Z,8.18
2019-06-20T12:42:14.245Z,7.97
2019-06-20T12:44:45.931Z,7.83
2019-06-20T12:47:15.548Z,8.90
2019-06-20T12:49:45.862Z,9.90
2019-06-20T12:52:15.375Z,11.95
2019-06-20T12:54:46.833Z,10.48
2019-06-20T12:57:16.565Z,11.03
2019-06-20T12:59:46.342Z,10.15
2019-06-20T13:02:17.536Z,9.48
2019-06-20T13:04:47.246Z,9.93
2019-06-20T13:07:16.924Z,11.00
2019-06-20T13:09:46.457Z,12.60
2019-06-20T13:12:16.069Z,12.40
2019-06-20T13:14:49.637Z,10.40
2019-06-20T13:17:19.634Z,10.75
2019-06-20T13:19:49.057Z,9.70
2019-06-20T13:22:18.514Z,8.80
2019-06-20T13:24:49.420Z,9.40
2019-06-20T13:27:19.097Z,8.90
2019-06-20T13:29:49.469Z,8.13
2019-06-20T13:32:19.265Z,9.23
2019-06-20T13:34:48.948Z,7.83
2019-06-20T13:37:18.871Z,8.40
2019-06-20T13:39:50.177Z,8.68
2019-06-20T13:42:19.849Z,8.73
2019-06-20T13:44:49.305Z,9.10
2019-06-20T13:47:19.216Z,9.68
2019-06-20T13:49:50.026Z,8.70
2019-06-20T13:52:19.517Z,10.95
2019-06-20T13:54:49.911Z,8.10
2019-06-20T13:57:19.496Z,8.78
2019-06-20T13:59:52.448Z,8.25
2019-06-20T14:02:19.919Z,8.83
2019-06-20T14:04:50.648Z,9.60
2019-06-20T14:07:20.235Z,9.30
2019-06-20T14:09:51.148Z,9.30
2019-06-20T14:12:20.729Z,8.40
2019-06-20T14:14:50.339Z,8.10
2019-06-20T14:17:19.930Z,7.92
2019-06-20T14:19:49.589Z,8.93
2019-06-20T14:22:19.075Z,9.08
2019-06-20T14:24:48.640Z,9.05
2019-06-20T14:27:18.081Z,9.38
2019-06-20T14:29:49.028Z,9.43
2019-06-20T14:32:22.223Z,9.63
2019-06-20T14:34:50.348Z,9.98
2019-06-20T14:37:19.722Z,10.18
2019-06-20T14:39:50.955Z,9.45
2019-06-20T14:42:20.304Z,10.40
2019-06-20T14:44:49.855Z,10.05
2019-06-20T14:47:19.642Z,9.30
2019-06-20T14:49:50.870Z,8.95
2019-06-20T14:52:20.243Z,10.40
2019-06-20T14:54:51.745Z,9.63
2019-06-20T14:57:21.289Z,9.55
2019-06-20T14:59:52.562Z,9.83
2019-06-20T15:02:37.231Z,9.43
2019-06-20T15:04:52.575Z,10.03
2019-06-20T15:07:22.225Z,10.45
2019-06-20T15:09:53.246Z,10.23
2019-06-20T15:12:22.645Z,9.68
2019-06-20T15:14:53.362Z,10.05
2019-06-20T15:17:25.868Z,10.43
2019-06-20T15:19:56.172Z,10.70
2019-06-20T15:22:26.844Z,10.78
2019-06-20T15:24:57.202Z,11.68
2019-06-20T15:27:26.859Z,9.08
2019-06-20T15:29:56.587Z,10.72
2019-06-20T15:32:29.495Z,10.13
2019-06-20T15:35:01.701Z,10.35
2019-06-20T15:37:29.997Z,11.08
2019-06-20T15:39:59.501Z,12.95
2019-06-20T15:42:28.902Z,10.13
2019-06-20T15:44:58.760Z,9.98
2019-06-20T15:47:28.155Z,10.35
2019-06-20T15:49:57.715Z,10.18
2019-06-20T15:52:27.300Z,11.33
2019-06-20T15:54:56.749Z,12.37
2019-06-20T15:57:26.145Z,11.73
2019-06-20T15:59:55.922Z,10.28
2019-06-20T16:02:25.308Z,11.73
2019-06-20T16:04:54.749Z,10.45
2019-06-20T16:07:24.382Z,10.82
2019-06-20T16:09:53.712Z,11.50
2019-06-20T16:12:23.058Z,12.82
2019-06-20T16:14:58.208Z,11.40
2019-06-20T16:17:27.833Z,10.68
2019-06-20T16:19:57.492Z,10.70
2019-06-20T16:22:27.111Z,11.63
2019-06-20T16:24:56.527Z,10.90
2019-06-20T16:27:26.689Z,10.20
2019-06-20T16:29:56.163Z,10.88
2019-06-20T16:32:25.617Z,10.88
2019-06-20T16:34:55.293Z,11.45
2019-06-20T16:37:24.774Z,11.63
2019-06-20T16:39:54.128Z,10.32
2019-06-20T16:42:23.782Z,11.53
2019-06-20T16:44:53.056Z,10.65
2019-06-20T16:47:22.685Z,10.75
2019-06-20T16:49:52.234Z,9.88
2019-06-20T16:52:21.716Z,11.20
2019-06-20T16:54:51.272Z,11.10
2019-06-20T16:57:20.856Z,11.40
2019-06-20T16:59:50.387Z,11.03
2019-06-20T17:02:19.823Z,10.13
2019-06-20T17:04:49.413Z,10.88
2019-06-20T17:07:18.646Z,11.00
2019-06-20T17:09:48.239Z,10.98
2019-06-20T17:12:18.012Z,10.60
2019-06-20T17:14:47.500Z,10.45
2019-06-20T17:17:17.153Z,10.70
2019-06-20T17:19:46.755Z,9.48
2019-06-20T17:22:17.484Z,9.73
2019-06-20T17:24:48.651Z,9.98
2019-06-20T17:27:18.548Z,9.38
2019-06-20T17:29:48.049Z,8.60
2019-06-20T17:32:17.556Z,8.60
2019-06-20T17:34:47.004Z,9.40
2019-06-20T17:37:16.611Z,8.00
2019-06-20T17:39:46.514Z,8.68
2019-06-20T17:42:16.173Z,8.78
2019-06-20T17:44:51.620Z,8.65
2019-06-20T17:47:22.058Z,7.95
2019-06-20T17:49:51.851Z,8.03
2019-06-20T17:52:21.511Z,7.92
2019-06-20T17:54:50.975Z,7.47
2019-06-20T17:57:20.569Z,7.42
2019-06-20T17:59:53.269Z,7.08
2019-06-20T18:02:22.833Z,7.03
2019-06-20T18:04:53.375Z,7.22
2019-06-20T18:07:24.340Z,5.75
2019-06-20T18:09:53.957Z,6.65
2019-06-20T18:12:23.521Z,6.40
2019-06-20T18:14:52.878Z,6.17
2019-06-20T18:17:22.381Z,6.65
2019-06-20T18:19:52.401Z,5.47
2019-06-20T18:22:22.213Z,6.33
2019-06-20T18:24:51.709Z,6.10
2019-06-20T18:27:21.628Z,6.62
2019-06-20T18:29:50.955Z,6.20
2019-06-20T18:32:20.380Z,6.92
2019-06-20T18:35:01.560Z,6.25
2019-06-20T18:37:31.451Z,6.05
2019-06-20T18:39:54.867Z,5.70
2019-06-20T18:42:24.494Z,5.70
2019-06-20T18:44:54.053Z,6.35
2019-06-20T18:47:23.747Z,6.75
2019-06-20T18:49:56.255Z,6.05
2019-06-20T18:52:25.612Z,5.83
2019-06-20T18:54:55.589Z,6.25
2019-06-20T18:57:25.223Z,6.37
2019-06-20T18:59:54.609Z,7.03
2019-06-20T19:02:24.231Z,6.78
2019-06-20T19:04:53.701Z,6.70
2019-06-20T19:07:23.262Z,6.95
2019-06-20T19:09:52.911Z,6.55
2019-06-20T19:12:22.550Z,6.28
2019-06-20T19:14:51.986Z,6.35
2019-06-20T19:17:21.754Z,7.53
2019-06-20T19:19:51.473Z,7.03
2019-06-20T19:22:21.296Z,6.33
2019-06-20T19:24:50.654Z,6.83
2019-06-20T19:27:20.306Z,7.08
2019-06-20T19:29:50.243Z,6.83
2019-06-20T19:32:19.792Z,8.13
2019-06-20T19:35:01.436Z,7.90
2019-06-20T19:37:20.434Z,8.13
2019-06-20T19:39:50.981Z,8.35
2019-06-20T19:42:20.734Z,8.13
2019-06-20T19:44:51.468Z,8.43
2019-06-20T19:47:20.814Z,7.72
2019-06-20T19:49:50.355Z,8.88
2019-06-20T19:52:19.997Z,9.10
2019-06-20T19:54:52.164Z,10.03
2019-06-20T19:57:21.487Z,8.80
2019-06-20T19:59:51.146Z,8.70
2019-06-20T20:02:20.627Z,9.03
2019-06-20T20:04:50.373Z,8.53
2019-06-20T20:07:19.885Z,8.58
2019-06-20T20:09:49.562Z,8.83
2019-06-20T20:12:19.052Z,8.20
2019-06-20T20:14:48.726Z,8.05
2019-06-20T20:17:18.124Z,7.87
2019-06-20T20:19:47.642Z,7.42
2019-06-20T20:22:17.221Z,8.15
2019-06-20T20:24:46.749Z,8.90
2019-06-20T20:27:16.717Z,8.00
2019-06-20T20:29:48.709Z,8.88
2019-06-20T20:32:18.262Z,7.80
2019-06-20T20:34:48.820Z,8.50
2019-06-20T20:37:19.271Z,7.97
2019-06-20T20:39:48.691Z,8.40
2019-06-20T20:42:18.228Z,7.50
2019-06-20T20:44:47.862Z,7.83
2019-06-20T20:47:17.233Z,8.10
2019-06-20T20:49:46.800Z,8.08
2019-06-20T20:52:16.507Z,8.13
2019-06-20T20:54:45.851Z,8.73
2019-06-20T20:57:15.211Z,7.85
2019-06-20T20:59:44.946Z,8.00
2019-06-20T21:02:14.312Z,8.33
2019-06-20T21:04:43.775Z,7.62
2019-06-20T21:07:13.365Z,8.23
2019-06-20T21:09:42.598Z,7.22
2019-06-20T21:12:12.519Z,7.97
2019-06-20T21:14:42.343Z,7.10
2019-06-20T21:17:11.782Z,7.42
2019-06-20T21:19:41.122Z,7.72
2019-06-20T21:22:10.657Z,22.62
2019-06-20T21:24:40.195Z,8.20
2019-06-20T21:27:09.948Z,6.90
2019-06-20T21:29:40.569Z,7.30
2019-06-20T21:32:10.073Z,6.72
2019-06-20T21:34:39.700Z,7.58
2019-06-20T21:37:09.226Z,7.78
2019-06-20T21:39:38.873Z,7.20
2019-06-20T21:42:08.575Z,6.78
2019-06-20T21:44:38.181Z,6.87
2019-06-20T21:47:07.668Z,6.17
2019-06-20T21:49:37.281Z,6.55
2019-06-20T21:52:06.785Z,6.58
2019-06-20T21:54:37.687Z,7.75
2019-06-20T21:57:07.282Z,6.80
2019-06-20T21:59:36.970Z,6.97
2019-06-20T22:02:06.212Z,6.10
2019-06-20T22:04:35.531Z,6.53
2019-06-20T22:07:05.323Z,6.17
2019-06-20T22:09:35.017Z,6.50
2019-06-20T22:12:04.429Z,5.95
2019-06-20T22:14:34.097Z,6.50
2019-06-20T22:17:03.495Z,6.75
2019-06-20T22:19:32.887Z,7.65
2019-06-20T22:22:02.511Z,12.00
2019-06-20T22:24:31.946Z,7.15
2019-06-20T22:27:01.291Z,6.75
2019-06-20T22:29:30.796Z,6.78
2019-06-20T22:32:00.548Z,7.58
2019-06-20T22:34:29.940Z,7.70
2019-06-20T22:36:59.621Z,7.17
2019-06-20T22:39:29.877Z,7.85
2019-06-20T22:41:59.264Z,7.20
2019-06-20T22:44:29.176Z,7.65
2019-06-20T22:46:58.475Z,7.55
2019-06-20T22:49:27.896Z,7.12
2019-06-20T22:51:57.473Z,7.22
2019-06-20T22:54:27.115Z,7.83
2019-06-20T22:56:56.400Z,9.68
2019-06-20T22:59:26.279Z,7.10
2019-06-20T23:01:55.816Z,6.50
2019-06-20T23:04:25.204Z,8.18
2019-06-20T23:06:56.688Z,7.55
2019-06-20T23:09:27.442Z,6.75
2019-06-20T23:11:56.532Z,6.42
2019-06-20T23:14:26.367Z,5.85
2019-06-20T23:16:55.820Z,6.70
2019-06-20T23:19:25.369Z,6.12
2019-06-20T23:21:54.932Z,8.45
2019-06-20T23:24:24.682Z,6.83
2019-06-20T23:26:54.242Z,6.17
2019-06-20T23:29:24.217Z,6.72
2019-06-20T23:31:53.766Z,6.53
2019-06-20T23:34:23.372Z,7.00
2019-06-20T23:36:52.950Z,7.22
2019-06-20T23:39:22.484Z,6.10
2019-06-20T23:41:51.917Z,6.97
2019-06-20T23:44:21.467Z,6.80
2019-06-20T23:46:50.875Z,7.55
2019-06-20T23:49:20.311Z,7.95
2019-06-20T23:51:49.854Z,6.70
2019-06-20T23:54:19.401Z,6.62
2019-06-20T23:56:49.255Z,6.33
2019-06-20T23:59:18.837Z,6.12
